createdAt,value
2022-08-18T00:01:14.534Z,99911.19
2022-08-18T00:03:56.516Z,99905.16
2022-08-18T00:06:29.762Z,99904.97
2022-08-18T00:08:59.781Z,99903.75
2022-08-18T00:11:40.447Z,99906.69
2022-08-18T00:14:21.166Z,99901.25
2022-08-18T00:16:52.183Z,99902.56
2022-08-18T00:19:20.774Z,99894.66
2022-08-18T00:22:09.143Z,99896.78
2022-08-18T00:24:47.804Z,99898.44
2022-08-18T00:27:21.939Z,99893.66
2022-08-18T00:29:52.997Z,99891.78
2022-08-18T00:32:23.948Z,99883.44
2022-08-18T00:34:52.426Z,99893.25
2022-08-18T00:37:20.569Z,99891.56
2022-08-18T00:39:48.584Z,99900.75
2022-08-18T00:42:27.664Z,99897.00
2022-08-18T00:45:02.404Z,99899.91
2022-08-18T00:47:41.634Z,99894.91
2022-08-18T00:50:23.487Z,99898.25
2022-08-18T00:52:56.370Z,99899.28
2022-08-18T00:55:26.410Z,99890.69
2022-08-18T00:58:01.812Z,99882.53
2022-08-18T01:00:30.191Z,99876.47
2022-08-18T01:03:03.390Z,99873.78
2022-08-18T01:05:40.786Z,99870.03
2022-08-18T01:08:14.361Z,99868.34
2022-08-18T01:10:43.072Z,99873.34
2022-08-18T01:13:12.678Z,99871.41
2022-08-18T01:15:40.882Z,99873.75
2022-08-18T01:18:30.393Z,99868.75
2022-08-18T01:21:23.784Z,99868.12
2022-08-18T01:23:54.575Z,99861.22
2022-08-18T01:26:23.924Z,99867.09
2022-08-18T01:28:52.446Z,99870.84
2022-08-18T01:31:38.172Z,99868.50
2022-08-18T01:34:07.790Z,99865.63
2022-08-18T01:36:37.826Z,99863.87
2022-08-18T01:39:09.687Z,99868.62
2022-08-18T01:41:38.254Z,99862.50
2022-08-18T01:44:08.808Z,99868.47
2022-08-18T01:46:37.252Z,99862.56
2022-08-18T01:49:08.067Z,99861.00
2022-08-18T01:51:39.536Z,99863.19
2022-08-18T01:54:13.314Z,99858.94
2022-08-18T01:56:43.284Z,99862.19
2022-08-18T01:59:14.054Z,99854.19
2022-08-18T02:01:50.501Z,99862.06
2022-08-18T02:04:41.110Z,99871.13
2022-08-18T02:07:11.448Z,99872.09
2022-08-18T02:09:42.787Z,99860.97
2022-08-18T02:12:12.223Z,99870.87
2022-08-18T02:14:41.292Z,99865.19
2022-08-18T02:17:12.003Z,99861.19
2022-08-18T02:19:42.730Z,99870.34
2022-08-18T02:22:13.487Z,99870.75
2022-08-18T02:24:43.153Z,99861.69
2022-08-18T02:27:13.232Z,99865.16
2022-08-18T02:29:42.158Z,99866.75
2022-08-18T02:32:10.392Z,99867.50
2022-08-18T02:34:38.508Z,99871.44
2022-08-18T02:37:06.812Z,99874.78
2022-08-18T02:39:35.573Z,99876.84
2022-08-18T02:42:05.565Z,99878.91
2022-08-18T02:44:34.185Z,99876.09
2022-08-18T02:47:02.267Z,99882.91
2022-08-18T02:49:30.140Z,99879.72
2022-08-18T02:51:58.323Z,99883.47
2022-08-18T02:54:27.217Z,99884.66
2022-08-18T02:56:57.197Z,99873.19
2022-08-18T02:59:28.378Z,99879.13
2022-08-18T03:02:00.028Z,99878.03
2022-08-18T03:04:30.896Z,99873.16
2022-08-18T03:07:01.202Z,99881.00
2022-08-18T03:09:30.290Z,99875.31
2022-08-18T03:11:59.105Z,99877.72
2022-08-18T03:14:29.129Z,99872.69
2022-08-18T03:16:58.204Z,99880.50
2022-08-18T03:19:28.690Z,99880.50
2022-08-18T03:21:59.333Z,99886.56
2022-08-18T03:24:29.106Z,99885.91
2022-08-18T03:26:57.829Z,99886.94
2022-08-18T03:29:32.291Z,99882.75
2022-08-18T03:32:01.609Z,99886.94
2022-08-18T03:34:30.106Z,99893.00
2022-08-18T03:36:58.278Z,99896.72
2022-08-18T03:39:27.689Z,99899.44
2022-08-18T03:42:00.956Z,99900.09
2022-08-18T03:44:34.003Z,99889.91
2022-08-18T03:47:03.731Z,99906.16
2022-08-18T03:49:33.804Z,99911.19
2022-08-18T03:52:02.718Z,99911.19
2022-08-18T03:54:33.665Z,99907.28
2022-08-18T03:57:02.270Z,99908.41
2022-08-18T03:59:33.204Z,99906.00
2022-08-18T04:02:05.186Z,99902.56
2022-08-18T04:04:33.611Z,99894.06
2022-08-18T04:07:04.690Z,99897.03
2022-08-18T04:09:34.509Z,99898.84
2022-08-18T04:12:16.712Z,99899.31
2022-08-18T04:14:49.349Z,99905.66
2022-08-18T04:17:20.338Z,99904.94
2022-08-18T04:19:48.523Z,99906.41
2022-08-18T04:22:18.451Z,99911.28
2022-08-18T04:24:47.352Z,99912.38
2022-08-18T04:27:18.579Z,99912.81
2022-08-18T04:29:48.657Z,99911.44
2022-08-18T04:32:16.960Z,99920.66
2022-08-18T04:34:44.882Z,99924.69
2022-08-18T04:37:13.959Z,99922.44
2022-08-18T04:39:42.518Z,99922.91
2022-08-18T04:42:11.311Z,99923.38
2022-08-18T04:44:39.541Z,99929.41
2022-08-18T04:47:09.424Z,99930.91
2022-08-18T04:49:37.916Z,99935.13
2022-08-18T04:52:40.221Z,99932.66
2022-08-18T04:55:10.852Z,99932.31
2022-08-18T04:57:39.213Z,99937.63
2022-08-18T05:00:11.977Z,99939.28
2022-08-18T05:02:41.854Z,99943.13
2022-08-18T05:05:11.143Z,99945.06
2022-08-18T05:07:45.923Z,99938.88
2022-08-18T05:10:17.766Z,99937.66
2022-08-18T05:12:48.743Z,99937.72
2022-08-18T05:15:17.794Z,99940.53
2022-08-18T05:17:47.658Z,99948.66
2022-08-18T05:20:20.149Z,99946.56
2022-08-18T05:22:49.315Z,99954.78
2022-08-18T05:25:17.668Z,99962.31
2022-08-18T05:27:45.810Z,99960.53
2022-08-18T05:30:15.205Z,99955.66
2022-08-18T05:32:49.580Z,99963.87
2022-08-18T05:35:24.543Z,99961.06
2022-08-18T05:38:03.974Z,99961.38
2022-08-18T05:40:32.790Z,99956.25
2022-08-18T05:43:01.363Z,99961.41
2022-08-18T05:45:29.652Z,99966.88
2022-08-18T05:47:59.817Z,99962.75
2022-08-18T05:50:32.280Z,99963.94
2022-08-18T05:53:13.320Z,99957.34
2022-08-18T05:56:12.747Z,99957.03
2022-08-18T05:58:46.248Z,99959.12
2022-08-18T06:01:19.194Z,99962.31
2022-08-18T06:03:50.552Z,99961.13
2022-08-18T06:06:23.423Z,99965.97
2022-08-18T06:08:59.234Z,99963.72
2022-08-18T06:11:27.176Z,99965.81
2022-08-18T06:13:59.111Z,99962.91
2022-08-18T06:16:50.086Z,99962.31
2022-08-18T06:19:30.819Z,99963.16
2022-08-18T06:22:09.303Z,99961.28
2022-08-18T06:24:45.408Z,99964.84
2022-08-18T06:27:21.457Z,99959.03
2022-08-18T06:30:04.421Z,99972.66
2022-08-18T06:32:57.688Z,99970.75
2022-08-18T06:35:34.665Z,99968.06
2022-08-18T06:38:38.147Z,99977.87
2022-08-18T06:41:42.893Z,99984.38
2022-08-18T06:44:03.287Z,99981.03
2022-08-18T06:46:41.908Z,99985.44
2022-08-18T06:49:12.967Z,99991.31
2022-08-18T06:51:41.440Z,99985.00
2022-08-18T06:54:28.263Z,99996.06
2022-08-18T06:56:58.897Z,100003.81
2022-08-18T06:59:30.707Z,99996.50
2022-08-18T07:02:01.607Z,99998.19
2022-08-18T07:04:43.257Z,99989.78
2022-08-18T07:07:29.855Z,99994.37
2022-08-18T07:10:31.399Z,99995.00
2022-08-18T07:13:26.535Z,99988.69
2022-08-18T07:15:56.701Z,99998.94
2022-08-18T07:18:28.297Z,99999.78
2022-08-18T07:20:59.753Z,99995.59
2022-08-18T07:23:32.300Z,99997.19
2022-08-18T07:26:10.210Z,100008.22
2022-08-18T07:28:43.689Z,100014.97
2022-08-18T07:31:34.829Z,100020.81
2022-08-18T07:34:08.428Z,100015.12
2022-08-18T07:36:47.441Z,100020.16
2022-08-18T07:39:23.458Z,100021.00
2022-08-18T07:41:58.409Z,100032.72
2022-08-18T07:44:36.454Z,100032.09
2022-08-18T07:47:16.008Z,100029.16
2022-08-18T07:50:13.618Z,100027.72
2022-08-18T07:52:47.115Z,100030.25
2022-08-18T07:55:27.668Z,100042.00
2022-08-18T07:58:03.226Z,100039.91
2022-08-18T08:00:58.336Z,100046.63
2022-08-18T08:03:35.088Z,100045.88
2022-08-18T08:06:10.042Z,100053.19
2022-08-18T08:08:43.425Z,100059.78
2022-08-18T08:11:21.649Z,100060.38
2022-08-18T08:14:07.182Z,100064.72
2022-08-18T08:16:41.644Z,100069.16
2022-08-18T08:19:49.320Z,100060.25
2022-08-18T08:22:22.202Z,100053.00
2022-08-18T08:24:59.882Z,100063.16
2022-08-18T08:27:42.622Z,100067.00
2022-08-18T08:30:17.455Z,100070.41
2022-08-18T08:32:59.133Z,100067.84
2022-08-18T08:35:48.965Z,100067.47
2022-08-18T08:38:39.947Z,100071.63
2022-08-18T08:41:16.148Z,100067.84
2022-08-18T08:43:48.340Z,100059.75
2022-08-18T08:46:22.076Z,100057.03
2022-08-18T08:48:55.258Z,100057.19
2022-08-18T08:51:34.758Z,100053.22
2022-08-18T08:54:09.307Z,100047.78
2022-08-18T08:56:43.823Z,100048.44
2022-08-18T08:59:14.042Z,100046.81
2022-08-18T09:01:50.280Z,100052.16
2022-08-18T09:04:29.447Z,100043.94
2022-08-18T09:07:09.999Z,100036.44
2022-08-18T09:09:54.003Z,100030.84
2022-08-18T09:12:38.275Z,100035.12
2022-08-18T09:15:25.689Z,100033.63
2022-08-18T09:18:09.645Z,100034.50
2022-08-18T09:20:51.020Z,100026.19
2022-08-18T09:23:22.510Z,100030.66
2022-08-18T09:25:53.209Z,100030.59
2022-08-18T09:28:24.655Z,100031.84
2022-08-18T09:31:19.972Z,100033.13
2022-08-18T09:34:07.210Z,100033.87
2022-08-18T09:36:51.877Z,100032.28
2022-08-18T09:39:49.061Z,100025.03
2022-08-18T09:42:33.636Z,100012.50
2022-08-18T09:45:57.771Z,100006.94
2022-08-18T09:48:30.358Z,99998.28
2022-08-18T09:51:24.580Z,100012.16
2022-08-18T09:54:14.479Z,100011.88
2022-08-18T09:57:19.657Z,100025.53
2022-08-18T10:03:31.059Z,100037.00
2022-08-18T10:09:27.036Z,100034.94
2022-08-18T10:12:19.251Z,100019.91
2022-08-18T10:15:14.370Z,100014.97
2022-08-18T10:18:13.492Z,100018.34
2022-08-18T10:20:54.602Z,100030.16
2022-08-18T10:24:14.575Z,100038.41
2022-08-18T10:27:13.153Z,100034.41
2022-08-18T10:29:59.554Z,100034.03
2022-08-18T10:32:52.047Z,100024.91
2022-08-18T10:35:53.390Z,100015.44
2022-08-18T10:38:31.029Z,100008.88
2022-08-18T10:41:10.193Z,100010.78
2022-08-18T10:43:57.392Z,100014.34
2022-08-18T10:46:31.954Z,100021.28
2022-08-18T10:49:18.231Z,100017.53
2022-08-18T10:52:12.624Z,100019.41
2022-08-18T10:55:00.015Z,100021.97
2022-08-18T10:57:38.774Z,100016.22
2022-08-18T11:00:12.377Z,100029.44
2022-08-18T11:03:21.162Z,100039.97
2022-08-18T11:05:43.326Z,100047.97
2022-08-18T11:08:17.267Z,100055.75
2022-08-18T11:11:27.708Z,100053.22
2022-08-18T11:13:53.527Z,100054.72
2022-08-18T11:16:32.812Z,100055.53
2022-08-18T11:19:10.653Z,100055.06
2022-08-18T11:21:44.342Z,100050.72
2022-08-18T11:24:17.139Z,100056.41
2022-08-18T11:29:39.759Z,100066.34
2022-08-18T11:32:11.166Z,100061.81
2022-08-18T11:34:52.074Z,100063.91
2022-08-18T11:37:27.385Z,100066.53
2022-08-18T11:39:58.543Z,100067.13
2022-08-18T11:42:33.177Z,100072.84
2022-08-18T11:45:14.833Z,100067.66
2022-08-18T11:48:02.533Z,100057.84
2022-08-18T11:50:32.951Z,100055.44
2022-08-18T11:53:15.357Z,100048.88
2022-08-18T11:55:48.263Z,100060.19
2022-08-18T11:58:39.947Z,100060.00
2022-08-18T12:01:10.902Z,100053.25
2022-08-18T12:03:43.007Z,100046.59
2022-08-18T12:06:19.911Z,100043.50
2022-08-18T12:08:59.070Z,100036.50
2022-08-18T12:11:30.925Z,100027.69
2022-08-18T12:14:31.571Z,100034.13
2022-08-18T12:17:01.715Z,100023.84
2022-08-18T12:19:36.025Z,100025.72
2022-08-18T12:22:17.462Z,100020.94
2022-08-18T12:24:48.352Z,100026.53
2022-08-18T12:27:21.675Z,100023.28
2022-08-18T12:29:51.665Z,100017.81
2022-08-18T12:32:41.425Z,100020.91
2022-08-18T12:35:12.657Z,100013.50
2022-08-18T12:38:03.566Z,100021.13
2022-08-18T12:40:33.686Z,100014.63
2022-08-18T12:43:01.798Z,100014.50
2022-08-18T12:45:30.997Z,100004.34
2022-08-18T12:48:04.358Z,100002.09
2022-08-18T12:50:58.279Z,100011.44
2022-08-18T12:53:59.739Z,99998.47
2022-08-18T12:56:31.060Z,100000.75
2022-08-18T12:59:04.051Z,99999.69
2022-08-18T13:01:33.391Z,100002.78
2022-08-18T13:04:12.520Z,99996.56
2022-08-18T13:06:59.435Z,100002.78
2022-08-18T13:09:34.084Z,100007.19
2022-08-18T13:12:17.595Z,100007.78
2022-08-18T13:14:46.501Z,100014.19
2022-08-18T13:17:32.968Z,100019.25
2022-08-18T13:20:11.191Z,100016.37
2022-08-18T13:22:42.152Z,100013.50
2022-08-18T13:25:12.367Z,100013.28
2022-08-18T13:27:43.569Z,100011.84
2022-08-18T13:30:30.159Z,100000.37
2022-08-18T13:33:05.139Z,100000.50
2022-08-18T13:35:52.341Z,100002.31
2022-08-18T13:38:27.221Z,100008.50
2022-08-18T13:40:58.985Z,100007.31
2022-08-18T13:43:32.022Z,100004.13
2022-08-18T13:46:00.969Z,100013.97
2022-08-18T13:48:29.837Z,100021.00
2022-08-18T13:51:01.661Z,100015.88
2022-08-18T13:53:31.928Z,100018.62
2022-08-18T13:56:00.016Z,100017.25
2022-08-18T13:58:29.208Z,100016.19
2022-08-18T14:01:15.970Z,100005.72
2022-08-18T14:03:47.902Z,100004.88
2022-08-18T14:06:22.671Z,100000.63
2022-08-18T14:08:53.344Z,99993.91
2022-08-18T14:11:23.534Z,99989.38
2022-08-18T14:13:54.926Z,99989.12
2022-08-18T14:16:23.230Z,99988.63
2022-08-18T14:19:12.976Z,99988.88
2022-08-18T14:22:04.004Z,99991.59
2022-08-18T14:24:53.107Z,99981.25
2022-08-18T14:27:26.072Z,99974.22
2022-08-18T14:29:55.144Z,99965.22
2022-08-18T14:32:29.522Z,99953.28
2022-08-18T14:35:00.738Z,99936.88
2022-08-18T14:37:42.956Z,99930.56
2022-08-18T14:40:12.895Z,99929.19
2022-08-18T14:42:54.525Z,99935.44
2022-08-18T14:45:27.947Z,99935.88
2022-08-18T14:48:06.521Z,99937.94
2022-08-18T14:50:36.125Z,99945.31
2022-08-18T14:53:06.831Z,99945.06
2022-08-18T14:55:34.819Z,99947.50
2022-08-18T14:58:07.224Z,99946.97
2022-08-18T15:00:49.735Z,99941.75
2022-08-18T15:03:21.763Z,99930.97
2022-08-18T15:06:00.133Z,99932.63
2022-08-18T15:08:30.515Z,99933.13
2022-08-18T15:10:59.715Z,99930.16
2022-08-18T15:13:27.846Z,99924.72
2022-08-18T15:16:01.854Z,99939.81
2022-08-18T15:18:31.400Z,99933.81
2022-08-18T15:21:35.111Z,99925.41
2022-08-18T15:24:25.735Z,99915.19
2022-08-18T15:27:03.280Z,99920.31
2022-08-18T15:29:35.663Z,99913.88
2022-08-18T15:32:06.022Z,99909.63
2022-08-18T15:34:46.191Z,99908.59
2022-08-18T15:37:19.493Z,99900.47
2022-08-18T15:39:51.855Z,99895.50
2022-08-18T15:42:24.620Z,99879.59
2022-08-18T15:44:53.587Z,99874.94
2022-08-18T15:47:22.211Z,99863.47
2022-08-18T15:49:54.943Z,99842.69
2022-08-18T15:52:26.196Z,99830.19
2022-08-18T15:54:58.376Z,99828.44
2022-08-18T15:57:39.364Z,99823.91
2022-08-18T16:00:11.996Z,99822.59
2022-08-18T16:02:41.120Z,99815.25
2022-08-18T16:05:18.085Z,99810.84
2022-08-18T16:07:47.562Z,99818.56
2022-08-18T16:10:19.495Z,99817.13
2022-08-18T16:12:48.150Z,99812.50
2022-08-18T16:15:21.201Z,99802.97
2022-08-18T16:17:52.348Z,99796.41
2022-08-18T16:20:23.186Z,99795.75
2022-08-18T16:22:52.171Z,99795.66
2022-08-18T16:25:22.431Z,99800.22
2022-08-18T16:27:50.749Z,99799.84
2022-08-18T16:30:21.641Z,99799.62
2022-08-18T16:32:50.774Z,99801.75
2022-08-18T16:35:19.962Z,99800.81
2022-08-18T16:37:49.660Z,99790.13
2022-08-18T16:40:19.167Z,99782.06
2022-08-18T16:42:48.846Z,99789.06
2022-08-18T16:45:22.343Z,99791.50
2022-08-18T16:47:50.674Z,99779.69
2022-08-18T16:50:19.335Z,99785.56
2022-08-18T16:52:47.334Z,99784.19
2022-08-18T16:55:15.692Z,99791.03
2022-08-18T16:58:01.973Z,99791.28
2022-08-18T17:00:54.866Z,99799.38
2022-08-18T17:03:41.493Z,99788.00
2022-08-18T17:06:12.104Z,99796.38
2022-08-18T17:08:41.096Z,99806.81
2022-08-18T17:11:11.526Z,99812.22
2022-08-18T17:13:40.105Z,99820.00
2022-08-18T17:16:10.701Z,99819.56
2022-08-18T17:18:38.988Z,99821.06
2022-08-18T17:21:09.443Z,99819.28
2022-08-18T17:23:38.899Z,99823.44
2022-08-18T17:26:09.986Z,99824.41
2022-08-18T17:28:50.243Z,99822.38
2022-08-18T17:31:21.217Z,99829.44
2022-08-18T17:33:49.352Z,99825.63
2022-08-18T17:36:23.985Z,99827.31
2022-08-18T17:38:58.926Z,99834.34
2022-08-18T17:41:28.250Z,99831.56
2022-08-18T17:44:00.849Z,99833.66
2022-08-18T17:46:38.737Z,99837.78
2022-08-18T17:49:12.881Z,99834.81
2022-08-18T17:51:46.299Z,99830.28
2022-08-18T17:54:23.462Z,99837.72
2022-08-18T17:56:55.049Z,99839.44
2022-08-18T17:59:50.951Z,99834.37
2022-08-18T18:02:29.988Z,99843.22
2022-08-18T18:04:59.366Z,99846.22
2022-08-18T18:07:31.379Z,99848.34
2022-08-18T18:10:03.432Z,99851.53
2022-08-18T18:12:34.798Z,99852.28
2022-08-18T18:15:07.195Z,99842.63
2022-08-18T18:17:38.765Z,99855.19
2022-08-18T18:20:37.944Z,99855.28
2022-08-18T18:23:17.747Z,99864.63
2022-08-18T18:25:46.505Z,99858.97
2022-08-18T18:28:26.284Z,99858.72
2022-08-18T18:30:57.942Z,99860.88
2022-08-18T18:33:29.746Z,99860.50
2022-08-18T18:36:01.457Z,99859.44
2022-08-18T18:38:33.124Z,99860.12
2022-08-18T18:41:04.623Z,99854.69
2022-08-18T18:43:38.109Z,99853.41
2022-08-18T18:46:31.018Z,99852.59
2022-08-18T18:49:09.849Z,99854.69
2022-08-18T18:51:50.552Z,99858.00
2022-08-18T18:54:34.871Z,99866.03
2022-08-18T18:57:04.310Z,99873.09
2022-08-18T18:59:49.497Z,99870.59
2022-08-18T19:02:33.593Z,99879.37
2022-08-18T19:05:12.445Z,99884.06
2022-08-18T19:07:54.246Z,99881.16
2022-08-18T19:10:28.392Z,99893.78
2022-08-18T19:13:01.496Z,99896.66
2022-08-18T19:15:33.366Z,99891.88
2022-08-18T19:18:17.538Z,99901.31
2022-08-18T19:21:25.475Z,99899.00
2022-08-18T19:23:47.232Z,99897.19
2022-08-18T19:26:27.002Z,99903.06
2022-08-18T19:29:12.050Z,99893.00
2022-08-18T19:31:44.708Z,99896.63
2022-08-18T19:34:18.425Z,99901.00
2022-08-18T19:36:57.475Z,99910.69
2022-08-18T19:39:33.756Z,99906.50
2022-08-18T19:42:10.699Z,99908.63
2022-08-18T19:45:00.315Z,99895.00
2022-08-18T19:47:40.734Z,99892.09
2022-08-18T19:50:16.663Z,99887.06
2022-08-18T19:53:07.778Z,99888.53
2022-08-18T19:55:47.424Z,99879.75
2022-08-18T19:58:31.885Z,99876.81
2022-08-18T20:01:02.736Z,99890.62
2022-08-18T20:03:51.441Z,99892.09
2022-08-18T20:06:44.521Z,99891.69
2022-08-18T20:09:30.576Z,99897.75
2022-08-18T20:12:10.116Z,99895.84
2022-08-18T20:14:42.392Z,99892.06
2022-08-18T20:17:17.829Z,99882.84
2022-08-18T20:20:05.551Z,99889.53
2022-08-18T20:22:36.602Z,99885.97
2022-08-18T20:25:31.388Z,99895.41
2022-08-18T20:28:23.670Z,99896.03
2022-08-18T20:31:01.748Z,99896.00
2022-08-18T20:33:31.851Z,99898.03
2022-08-18T20:36:08.902Z,99905.59
2022-08-18T20:38:39.887Z,99905.03
2022-08-18T20:41:38.968Z,99905.50
2022-08-18T20:44:48.696Z,99910.59
2022-08-18T20:47:32.023Z,99912.59
2022-08-18T20:50:22.612Z,99912.38
2022-08-18T20:53:01.408Z,99911.72
2022-08-18T20:55:38.422Z,99922.38
2022-08-18T20:58:13.202Z,99928.88
2022-08-18T21:00:46.460Z,99937.31
2022-08-18T21:03:18.176Z,99942.50
2022-08-18T21:05:49.477Z,99953.13
2022-08-18T21:08:27.569Z,99962.78
2022-08-18T21:10:58.172Z,99965.38
2022-08-18T21:13:32.408Z,99970.22
2022-08-18T21:16:01.688Z,99978.81
2022-08-18T21:18:30.099Z,99989.28
2022-08-18T21:21:00.330Z,99992.81
2022-08-18T21:23:31.669Z,99993.41
2022-08-18T21:26:06.295Z,99994.84
2022-08-18T21:28:37.333Z,99994.41
2022-08-18T21:31:42.283Z,99992.94
2022-08-18T21:34:00.765Z,99988.09
2022-08-18T21:36:32.301Z,99989.09
2022-08-18T21:39:07.366Z,99987.25
2022-08-18T21:41:42.269Z,99985.75
2022-08-18T21:44:16.620Z,99982.38
2022-08-18T21:46:47.306Z,99973.34
2022-08-18T21:49:26.282Z,99971.19
2022-08-18T21:51:55.288Z,99970.72
2022-08-18T21:54:26.092Z,99964.19
2022-08-18T21:57:19.734Z,99957.75
2022-08-18T22:00:17.385Z,99954.75
2022-08-18T22:02:52.286Z,99949.13
2022-08-18T22:05:57.815Z,99931.94
2022-08-18T22:08:24.090Z,99928.16
2022-08-18T22:11:44.160Z,99920.69
2022-08-18T22:14:27.973Z,99922.06
2022-08-18T22:17:26.436Z,99920.62
2022-08-18T22:19:56.554Z,99901.22
2022-08-18T22:22:42.859Z,99900.94
2022-08-18T22:25:13.084Z,99898.72
2022-08-18T22:27:41.257Z,99891.72
2022-08-18T22:30:09.754Z,99875.06
2022-08-18T22:32:39.983Z,99882.38
2022-08-18T22:35:09.804Z,99876.75
2022-08-18T22:37:47.380Z,99868.09
2022-08-18T22:40:21.939Z,99870.56
2022-08-18T22:42:50.423Z,99871.94
2022-08-18T22:45:18.888Z,99873.91
2022-08-18T22:47:46.852Z,99862.19
2022-08-18T22:50:16.520Z,99861.91
2022-08-18T22:52:48.154Z,99869.25
2022-08-18T22:55:23.831Z,99866.22
2022-08-18T22:57:55.742Z,99874.53
2022-08-18T23:00:26.375Z,99861.59
2022-08-18T23:02:54.887Z,99871.41
2022-08-18T23:05:24.768Z,99872.56
2022-08-18T23:07:53.042Z,99869.97
2022-08-18T23:10:22.546Z,99869.56
2022-08-18T23:12:53.333Z,99872.88
2022-08-18T23:15:23.226Z,99871.25
2022-08-18T23:17:51.295Z,99870.41
2022-08-18T23:20:19.882Z,99869.53
2022-08-18T23:22:49.634Z,99869.38
2022-08-18T23:25:17.948Z,99873.63
2022-08-18T23:27:46.069Z,99855.06
2022-08-18T23:30:14.550Z,99863.69
2022-08-18T23:32:42.894Z,99859.97
2022-08-18T23:35:10.996Z,99864.59
2022-08-18T23:37:39.498Z,99862.94
2022-08-18T23:40:13.055Z,99872.09
2022-08-18T23:42:41.315Z,99867.50
2022-08-18T23:45:10.479Z,99872.09
2022-08-18T23:47:38.546Z,99878.34
2022-08-18T23:50:07.880Z,99870.59
2022-08-18T23:52:35.827Z,99865.78
2022-08-18T23:55:05.691Z,99869.00
2022-08-18T23:57:36.065Z,99870.22
